TimeEDT,TemperatureF,Dew PointF,Humidity,Sea Level PressureIn,VisibilityMPH,Wind Direction,Wind SpeedMPH,Gust SpeedMPH,PrecipitationIn,Events,Conditions,WindDirDegrees,DateUTC
12:53 AM,78.1,73.9,87,30.02,10.0,SW,5.8,-,0.01,Rain,Light Rain,230,2012-10-03 04:53:00
1:53 AM,77.0,73.0,88,30.02,10.0,Calm,Calm,-,0.00,,Clear,0,2012-10-03 05:53:00
2:53 AM,77.0,73.0,88,30.02,10.0,Calm,Calm,-,N/A,,Clear,0,2012-10-03 06:53:00
3:53 AM,75.9,73.0,91,30.02,10.0,Calm,Calm,-,N/A,,Clear,0,2012-10-03 07:53:00
4:53 AM,75.9,73.0,91,30.04,10.0,Calm,Calm,-,N/A,,Clear,0,2012-10-03 08:53:00
5:53 AM,75.0,72.0,90,30.06,9.0,Calm,Calm,-,N/A,,Partly Cloudy,0,2012-10-03 09:53:00
6:53 AM,75.9,73.0,91,30.07,10.0,Calm,Calm,-,N/A,,Scattered Clouds,0,2012-10-03 10:53:00
7:53 AM,75.9,73.0,91,30.08,7.0,Calm,Calm,-,0.00,,Mostly Cloudy,0,2012-10-03 11:53:00
8:18 AM,75.2,73.4,94,30.09,10.0,Calm,Calm,-,N/A,,Overcast,0,2012-10-03 12:18:00
8:53 AM,77.0,73.9,90,30.10,10.0,Calm,Calm,-,N/A,,Overcast,0,2012-10-03 12:53:00
9:53 AM,77.0,73.9,90,30.12,10.0,Calm,Calm,-,N/A,,Overcast,0,2012-10-03 13:53:00
10:06 AM,78.8,73.4,83,30.13,10.0,Calm,Calm,-,N/A,,Overcast,0,2012-10-03 14:06:00
10:53 AM,80.1,73.9,81,30.13,10.0,Calm,Calm,-,N/A,,Mostly Cloudy,0,2012-10-03 14:53:00
11:32 AM,80.6,73.4,79,30.13,10.0,SW,3.5,-,N/A,,Overcast,220,2012-10-03 15:32:00
11:53 AM,81.0,72.0,74,30.13,10.0,SSW,4.6,-,N/A,,Overcast,210,2012-10-03 15:53:00
1:02 PM,82.4,71.6,70,30.12,10.0,Calm,Calm,-,N/A,,Mostly Cloudy,0,2012-10-03 17:02:00
1:10 PM,82.4,71.6,70,30.11,10.0,Calm,Calm,-,N/A,,Mostly Cloudy,0,2012-10-03 17:10:00
1:53 PM,82.9,72.0,69,30.10,10.0,Variable,3.5,-,N/A,,Mostly Cloudy,0,2012-10-03 17:53:00
2:26 PM,84.2,71.6,66,30.09,10.0,SE,4.6,-,N/A,,Overcast,140,2012-10-03 18:26:00
2:53 PM,82.0,73.0,74,30.09,10.0,ESE,10.4,-,N/A,,Overcast,110,2012-10-03 18:53:00
3:01 PM,82.4,73.4,74,30.09,10.0,ESE,6.9,-,0.00,Rain,Light Rain,120,2012-10-03 19:01:00
3:53 PM,81.0,72.0,74,30.10,10.0,West,6.9,-,0.00,,Mostly Cloudy,270,2012-10-03 19:53:00
4:53 PM,79.0,73.0,82,30.10,10.0,NNE,6.9,-,0.00,,Mostly Cloudy,20,2012-10-03 20:53:00
5:53 PM,78.1,72.0,81,30.11,10.0,North,6.9,-,N/A,,Mostly Cloudy,360,2012-10-03 21:53:00
6:16 PM,77.0,73.4,89,30.11,1.5,North,10.4,-,0.21,Rain,Heavy Rain,350,2012-10-03 22:16:00
6:27 PM,75.2,71.6,89,30.12,3.0,North,6.9,-,0.25,Rain,Light Rain,10,2012-10-03 22:27:00
6:53 PM,75.9,73.0,91,30.13,10.0,Calm,Calm,-,0.25,Rain,Light Rain,0,2012-10-03 22:53:00
7:53 PM,75.9,73.0,91,30.15,10.0,Calm,Calm,-,0.00,,Clear,0,2012-10-03 23:53:00
9:53 PM,75.9,73.0,91,30.18,10.0,Calm,Calm,-,N/A,,Clear,0,2012-10-04 01:53:00
11:13 PM,75.2,73.4,94,30.19,4.0,Calm,Calm,-,N/A,,Overcast,0,2012-10-04 03:13:00
11:30 PM,75.2,73.4,94,30.18,1.8,Calm,Calm,-,N/A,,Overcast,0,2012-10-04 03:30:00
11:53 PM,75.0,73.0,94,30.18,0.8,Calm,Calm,-,N/A,,Mist,0,2012-10-04 03:53:00